Time;durP1;ratioP1;P1;durP2;ratioP2;P2;SDS_P1;SDS_P2;PMS_P1;PMS_P2;Temp;Humidity;BMP_temperature;BMP_pressure;BME280_temperature;BME280_humidity;BME280_pressure;Samples;Min_cycle;Max_cycle;Signal;HPM_P1;HPM_P2
2021/11/15 00:01:43;;;;;;;;;;;;;;;17.58;53.89;101906.56;143740;983;47008;-72
2021/11/15 00:04:09;;;;;;;;;;;;;;;17.60;53.56;101898.19;143742;972;47000;-72
2021/11/15 00:06:35;;;;;;;;;;;;;;;17.59;53.73;101902.78;143735;979;47010;-72
2021/11/15 00:09:01;;;;;;;;;;;;;;;17.60;54.32;101901.75;143739;982;47002;-72
2021/11/15 00:11:27;;;;;;;;;;;;;;;17.58;55.11;101912.00;143739;985;47009;-71
2021/11/15 00:13:53;;;;;;;;;;;;;;;17.56;55.09;101914.09;143739;985;47000;-71
2021/11/15 00:16:19;;;;;;;;;;;;;;;17.55;54.86;101913.28;143735;985;47010;-70
2021/11/15 00:18:45;;;;;;;;;;;;;;;17.54;54.50;101906.16;143739;982;47002;-71
2021/11/15 00:21:11;;;;;;;;;;;;;;;17.56;53.81;101909.47;143738;985;46008;-71
2021/11/15 00:23:37;;;;;;;;;;;;;;;17.57;53.61;101913.84;143745;975;46023;-72
2021/11/15 00:26:03;;;;;;;;;;;;;;;17.58;53.53;101903.84;143739;986;46932;-72
2021/11/15 00:28:29;;;;;;;;;;;;;;;17.60;52.96;101906.34;143740;981;47002;-72
2021/11/15 00:30:55;;;;;;;;;;;;;;;17.59;53.26;101905.50;143739;986;47003;-72
2021/11/15 00:33:20;;;;;;;;;;;;;;;17.61;52.89;101899.84;143740;983;47000;-71
2021/11/15 00:35:47;;;;;;;;;;;;;;;17.58;53.17;101910.09;143741;981;46011;-72
2021/11/15 00:38:13;;;;;;;;;;;;;;;17.56;53.39;101909.47;143738;974;47006;-71
2021/11/15 00:40:39;;;;;;;;;;;;;;;17.56;53.17;101912.19;143738;982;47010;-72
2021/11/15 00:43:05;;;;;;;;;;;;;;;17.56;53.62;101924.94;143740;980;47010;-72
2021/11/15 00:45:32;;;;;;;;;;;;;;;17.55;53.64;101918.69;143741;982;46012;-72
2021/11/15 00:47:58;;;;;;;;;;;;;;;17.56;53.45;101912.19;143738;978;47004;-71
2021/11/15 00:50:23;;;;;;;;;;;;;;;17.56;53.54;101908.66;143740;983;46010;-71
2021/11/15 00:52:50;;;;;;;;;;;;;;;17.56;53.33;101906.75;143741;982;47002;-71
2021/11/15 00:55:16;;;;;;;;;;;;;;;17.55;53.40;101904.28;143738;982;47013;-70
2021/11/15 00:57:42;;;;;;;;;;;;;;;17.52;53.52;101897.41;143736;977;47004;-71
2021/11/15 01:00:11;;;;;;;;;;;;;;;17.53;53.48;101907.22;143739;984;47010;-71
2021/11/15 01:02:37;;;;;;;;;;;;;;;17.54;53.54;101905.31;143740;982;47002;-72
2021/11/15 01:05:04;;;;;;;;;;;;;;;17.53;53.47;101898.22;143738;979;47013;-72
2021/11/15 01:07:30;;;;;;;;;;;;;;;17.53;53.43;101904.50;143740;978;47004;-72
2021/11/15 01:09:56;;;;;;;;;;;;;;;17.54;53.47;101902.59;143739;984;46936;-72
2021/11/15 01:12:22;;;;;;;;;;;;;;;17.53;52.56;101899.06;143741;981;47002;-73
2021/11/15 01:14:48;;;;;;;;;;;;;;;17.53;52.59;101895.50;143740;982;46012;-72
2021/11/15 01:17:14;;;;;;;;;;;;;;;17.52;52.83;101889.25;143739;978;47004;-72
2021/11/15 01:19:40;;;;;;;;;;;;;;;17.52;52.57;101886.53;143738;984;47010;-72
2021/11/15 01:22:06;;;;;;;;;;;;;;;17.52;52.76;101883.81;143736;982;47002;-72
2021/11/15 01:24:32;;;;;;;;;;;;;;;17.53;52.52;101887.34;143738;982;47012;-72
2021/11/15 01:26:58;;;;;;;;;;;;;;;17.52;52.78;101888.41;143739;977;47005;-72
2021/11/15 01:29:24;;;;;;;;;;;;;;;17.50;52.62;101887.78;143738;984;46010;-72
2021/11/15 01:31:50;;;;;;;;;;;;;;;17.50;52.61;101877.75;143740;982;47002;-72
2021/11/15 01:34:16;;;;;;;;;;;;;;;17.50;53.01;101885.06;143738;981;47013;-72
2021/11/15 01:36:42;;;;;;;;;;;;;;;17.51;52.77;101884.00;143738;978;47004;-71
2021/11/15 01:39:08;;;;;;;;;;;;;;;17.50;52.83;101876.91;143740;984;46010;-71
2021/11/15 01:41:34;;;;;;;;;;;;;;;17.50;52.64;101876.91;143740;981;47002;-71
2021/11/15 01:44:00;;;;;;;;;;;;;;;17.51;52.77;101876.72;143740;986;47012;-72
2021/11/15 01:46:26;;;;;;;;;;;;;;;17.51;52.85;101879.44;143739;978;47004;-72
2021/11/15 01:48:51;;;;;;;;;;;;;;;17.52;52.76;101880.25;143737;985;47002;-71
2021/11/15 01:51:18;;;;;;;;;;;;;;;17.52;52.88;101886.53;143740;965;47002;-71
2021/11/15 01:53:44;;;;;;;;;;;;;;;17.51;52.84;101876.72;143738;982;46934;-71
2021/11/15 01:56:10;;;;;;;;;;;;;;;17.49;52.88;101877.97;143740;968;47004;-72
2021/11/15 01:58:36;;;;;;;;;;;;;;;17.48;53.52;101876.28;143739;984;46936;-73
2021/11/15 02:01:02;;;;;;;;;;;;;;;17.47;53.46;101875.47;143741;982;47002;-73
2021/11/15 02:03:30;;;;;;;;;;;;;;;17.47;53.68;101880.09;143742;981;46013;-72
2021/11/15 02:05:57;;;;;;;;;;;;;;;17.45;53.48;101872.12;143738;977;47004;-73
2021/11/15 02:08:23;;;;;;;;;;;;;;;17.47;53.33;101871.94;143739;980;46010;-72
2021/11/15 02:10:49;;;;;;;;;;;;;;;17.47;53.83;101869.22;143739;982;47002;-72
2021/11/15 02:13:17;;;;;;;;;;;;;;;17.46;54.33;101881.13;143739;981;47012;-72
2021/11/15 02:15:43;;;;;;;;;;;;;;;17.47;54.13;101882.81;143738;978;47004;-72
2021/11/15 02:18:09;;;;;;;;;;;;;;;17.47;54.75;101878.19;143739;984;46011;-72
2021/11/15 02:20:42;;;;;;;;;;;;;;;17.43;55.18;101883.22;143741;968;47002;-72
2021/11/15 02:23:08;;;;;;;;;;;;;;;17.39;55.31;101883.84;143738;982;47012;-71
2021/11/15 02:25:34;;;;;;;;;;;;;;;17.39;55.11;101884.69;143739;978;47004;-72
2021/11/15 02:28:00;;;;;;;;;;;;;;;17.40;54.96;101889.09;143737;984;47010;-72
2021/11/15 02:30:27;;;;;;;;;;;;;;;17.36;54.83;101882.41;143743;982;46010;-72
2021/11/15 02:32:53;;;;;;;;;;;;;;;17.37;54.83;101884.09;143738;982;47013;-72
2021/11/15 02:35:19;;;;;;;;;;;;;;;17.39;55.00;101876.56;143737;977;47004;-71
2021/11/15 02:37:46;;;;;;;;;;;;;;;17.35;55.38;101885.34;143740;973;47010;-73
2021/11/15 02:40:13;;;;;;;;;;;;;;;17.36;55.52;101871.56;143743;982;47002;-72
2021/11/15 02:42:39;;;;;;;;;;;;;;;17.39;55.27;101889.28;143734;981;47012;-72
2021/11/15 02:45:06;;;;;;;;;;;;;;;17.37;54.90;101886.81;143738;978;47004;-72
2021/11/15 02:47:32;;;;;;;;;;;;;;;17.37;55.38;101888.69;143738;983;47010;-71
2021/11/15 02:49:58;;;;;;;;;;;;;;;17.37;55.02;101884.09;143740;981;47002;-72
2021/11/15 02:52:24;;;;;;;;;;;;;;;17.35;55.38;101888.91;143740;982;47012;-72
2021/11/15 02:54:50;;;;;;;;;;;;;;;17.34;54.74;101891.84;143736;978;47004;-72
2021/11/15 02:57:18;;;;;;;;;;;;;;;17.36;54.59;101884.31;143738;973;47010;-71
2021/11/15 02:59:44;;;;;;;;;;;;;;;17.36;54.77;101882.41;143741;982;47002;-72
2021/11/15 03:02:10;;;;;;;;;;;;;;;17.38;54.35;101880.31;143738;982;47012;-73
2021/11/15 03:04:36;;;;;;;;;;;;;;;17.40;54.24;101888.25;143738;977;47004;-73
2021/11/15 03:07:04;;;;;;;;;;;;;;;17.41;54.25;101884.47;143737;984;46010;-72
2021/11/15 03:09:29;;;;;;;;;;;;;;;17.42;54.35;101876.12;143742;980;47002;-72
2021/11/15 03:11:55;;;;;;;;;;;;;;;17.41;54.79;101885.31;143739;981;47012;-71
2021/11/15 03:14:21;;;;;;;;;;;;;;;17.42;54.04;101881.56;143738;978;47004;-71
2021/11/15 03:16:48;;;;;;;;;;;;;;;17.42;54.27;101881.56;143737;982;47010;-71
2021/11/15 03:19:14;;;;;;;;;;;;;;;17.42;54.13;101876.12;143741;981;47002;-71
2021/11/15 03:21:40;;;;;;;;;;;;;;;17.40;54.68;101871.94;143739;975;47012;-71
2021/11/15 03:24:06;;;;;;;;;;;;;;;17.41;54.59;101876.34;143742;978;46012;-72
2021/11/15 03:26:32;;;;;;;;;;;;;;;17.39;54.21;101875.72;143739;981;47011;-72
2021/11/15 03:28:58;;;;;;;;;;;;;;;17.42;53.77;101869.84;143740;982;47002;-76
2021/11/15 03:31:29;;;;;;;;;;;;;;;17.40;54.72;101864.66;143738;982;47012;-72
2021/11/15 03:33:58;;;;;;;;;;;;;;;17.40;55.20;101871.94;143739;968;46030;-75
2021/11/15 03:36:24;;;;;;;;;;;;;;;17.39;55.20;101865.69;143739;984;47010;-71
2021/11/15 03:38:51;;;;;;;;;;;;;;;17.39;55.30;101865.69;143743;982;47002;-71
2021/11/15 03:41:17;;;;;;;;;;;;;;;17.39;55.09;101865.69;143737;981;47012;-72
2021/11/15 03:43:43;;;;;;;;;;;;;;;17.39;55.11;101871.13;143739;978;47004;-72
2021/11/15 03:46:09;;;;;;;;;;;;;;;17.38;54.88;101865.94;143738;984;46936;-71
2021/11/15 03:48:35;;;;;;;;;;;;;;;17.39;54.81;101870.28;143742;981;47002;-71
2021/11/15 03:51:01;;;;;;;;;;;;;;;17.39;54.82;101865.69;143740;969;47012;-71
2021/11/15 03:53:30;;;;;;;;;;;;;;;17.40;54.86;101867.37;143737;978;47004;-70
2021/11/15 03:55:56;;;;;;;;;;;;;;;17.40;54.86;101866.50;143733;974;47011;-72
2021/11/15 03:58:23;;;;;;;;;;;;;;;17.37;54.89;101859.66;143740;982;47002;-71
2021/11/15 04:00:49;;;;;;;;;;;;;;;17.41;54.91;101865.47;143738;982;47012;-71
2021/11/15 04:03:27;;;;;;;;;;;;;;;17.42;54.71;101865.28;143738;969;47004;-71
2021/11/15 04:05:59;;;;;;;;;;;;;;;17.40;54.88;101877.37;143740;984;46010;-71
2021/11/15 04:08:25;;;;;;;;;;;;;;;17.41;54.32;101870.91;143735;982;49002;-71
2021/11/15 04:10:51;;;;;;;;;;;;;;;17.41;54.73;101868.19;143739;980;47013;-72
2021/11/15 04:13:31;;;;;;;;;;;;;;;17.40;55.11;101872.78;143738;978;47004;-73
2021/11/15 04:15:59;;;;;;;;;;;;;;;17.41;55.08;101876.34;143739;984;47010;-72
2021/11/15 04:18:26;;;;;;;;;;;;;;;17.39;54.96;101873.84;143742;981;47002;-71
2021/11/15 04:20:53;;;;;;;;;;;;;;;17.36;54.97;101871.56;143736;982;47012;-71
2021/11/15 04:23:19;;;;;;;;;;;;;;;17.37;54.96;101875.94;143739;978;47004;-72
2021/11/15 04:25:45;;;;;;;;;;;;;;;17.38;54.37;101876.78;143741;971;46029;-70
2021/11/15 04:28:11;;;;;;;;;;;;;;;17.38;54.91;101872.19;143742;982;47002;-72
2021/11/15 04:30:37;;;;;;;;;;;;;;;17.36;54.46;101879.69;143739;972;46028;-71
2021/11/15 04:33:04;;;;;;;;;;;;;;;17.36;54.30;101885.13;143737;977;48004;-71
2021/11/15 04:35:30;;;;;;;;;;;;;;;17.36;53.39;101885.13;143739;984;47010;-71
2021/11/15 04:37:56;;;;;;;;;;;;;;;17.36;53.32;101893.28;143740;982;47002;-71
2021/11/15 04:40:22;;;;;;;;;;;;;;;17.35;53.17;101896.22;143737;981;47012;-71
2021/11/15 04:42:48;;;;;;;;;;;;;;;17.34;52.95;101895.38;143739;978;47004;-71
2021/11/15 04:45:14;;;;;;;;;;;;;;;17.35;52.99;101891.59;143737;984;47010;-71
2021/11/15 04:47:40;;;;;;;;;;;;;;;17.34;53.18;101895.38;143742;977;47003;-72
2021/11/15 04:50:08;;;;;;;;;;;;;;;17.35;53.67;101893.50;143739;968;46934;-71
2021/11/15 04:52:34;;;;;;;;;;;;;;;17.33;53.61;101896.41;143740;978;47004;-71
2021/11/15 04:55:00;;;;;;;;;;;;;;;17.32;53.68;101894.75;143740;983;46011;-71
2021/11/15 04:57:26;;;;;;;;;;;;;;;17.32;53.77;101893.94;143739;981;47002;-71
2021/11/15 04:59:52;;;;;;;;;;;;;;;17.33;53.17;101895.59;143739;982;47012;-72
2021/11/15 05:02:18;;;;;;;;;;;;;;;17.32;53.58;101896.66;143739;977;47005;-72
2021/11/15 05:04:44;;;;;;;;;;;;;;;17.30;53.43;101896.84;143741;971;46029;-71
2021/11/15 05:07:10;;;;;;;;;;;;;;;17.32;53.46;101904.78;143742;982;46010;-70
2021/11/15 05:09:36;;;;;;;;;;;;;;;17.30;53.73;101902.28;143737;981;47013;-71
2021/11/15 05:12:03;;;;;;;;;;;;;;;17.30;53.67;101907.69;143737;977;47008;-71
2021/11/15 05:14:29;;;;;;;;;;;;;;;17.30;53.41;101915.84;143740;984;46010;-70
2021/11/15 05:16:55;;;;;;;;;;;;;;;17.28;53.85;101905.22;143739;985;47000;-71
2021/11/15 05:19:21;;;;;;;;;;;;;;;17.27;53.74;101913.59;143740;976;46024;-71
2021/11/15 05:21:47;;;;;;;;;;;;;;;17.28;53.53;101909.81;143739;982;47002;-71
2021/11/15 05:24:13;;;;;;;;;;;;;;;17.28;53.63;101913.34;143740;986;46009;-71
2021/11/15 05:26:39;;;;;;;;;;;;;;;17.31;53.77;101913.97;143742;985;47000;-70
2021/11/15 05:29:05;;;;;;;;;;;;;;;17.28;54.11;101916.06;143739;974;47010;-71
2021/11/15 05:31:34;;;;;;;;;;;;;;;17.26;54.13;101923.59;143740;982;47002;-71
2021/11/15 05:34:00;;;;;;;;;;;;;;;17.26;53.82;101923.59;143739;985;46008;-71
2021/11/15 05:36:26;;;;;;;;;;;;;;;17.27;53.88;101916.31;143742;986;47000;-71
2021/11/15 05:38:52;;;;;;;;;;;;;;;17.27;54.03;101932.59;143739;986;47011;-72
2021/11/15 05:41:18;;;;;;;;;;;;;;;17.28;53.73;101932.38;143737;981;47002;-72
2021/11/15 05:43:44;;;;;;;;;;;;;;;17.33;54.24;101939.03;143740;986;46008;-72
2021/11/15 05:46:10;;;;;;;;;;;;;;;17.31;53.98;101933.81;143737;982;48000;-71
2021/11/15 05:48:36;;;;;;;;;;;;;;;17.30;54.26;101932.16;143738;985;47010;-71
2021/11/15 05:51:02;;;;;;;;;;;;;;;17.31;54.39;101938.44;143739;982;47002;-71
2021/11/15 05:53:28;;;;;;;;;;;;;;;17.30;54.46;101944.91;143740;985;46009;-71
2021/11/15 05:55:54;;;;;;;;;;;;;;;17.30;54.66;101944.91;143742;986;47000;-72
2021/11/15 05:58:20;;;;;;;;;;;;;;;17.28;54.80;101950.56;143739;986;46932;-72
2021/11/15 06:00:46;;;;;;;;;;;;;;;17.29;54.79;101949.50;143738;982;47003;-71
2021/11/15 06:03:12;;;;;;;;;;;;;;;17.28;55.21;101958.69;143737;985;47008;-72
2021/11/15 06:05:38;;;;;;;;;;;;;;;17.30;54.71;101958.47;143742;986;46010;-72
2021/11/15 06:08:04;;;;;;;;;;;;;;;17.31;54.44;101963.69;143741;972;47011;-72
2021/11/15 06:10:30;;;;;;;;;;;;;;;17.29;54.58;101954.94;143738;981;47002;-73
2021/11/15 06:12:56;;;;;;;;;;;;;;;17.26;54.36;101960.78;143740;978;46022;-73
2021/11/15 06:15:24;;;;;;;;;;;;;;;17.30;54.51;101963.91;143739;986;47000;-72
2021/11/15 06:17:51;;;;;;;;;;;;;;;17.31;54.74;101977.25;143738;985;47010;-75
2021/11/15 06:20:18;;;;;;;;;;;;;;;17.30;54.70;101983.72;143738;982;47002;-74
2021/11/15 06:22:45;;;;;;;;;;;;;;;17.29;55.08;101984.81;143736;984;47009;-72
2021/11/15 06:25:12;;;;;;;;;;;;;;;17.26;55.10;101983.34;143735;982;47000;-71
2021/11/15 06:27:38;;;;;;;;;;;;;;;17.27;55.46;101987.72;143738;985;47010;-71
2021/11/15 06:30:06;;;;;;;;;;;;;;;17.25;55.69;101995.25;143738;982;47002;-72
2021/11/15 06:32:32;;;;;;;;;;;;;;;17.22;55.73;101994.84;143737;985;47008;-73
2021/11/15 06:34:58;;;;;;;;;;;;;;;17.19;55.84;102001.53;143739;985;47000;-73
2021/11/15 06:37:25;;;;;;;;;;;;;;;17.15;56.11;102013.84;143739;985;47011;-72
2021/11/15 06:39:51;;;;;;;;;;;;;;;17.09;56.46;102007.41;143741;981;47002;-72
2021/11/15 06:42:17;;;;;;;;;;;;;;;17.11;56.49;102016.16;143739;985;47000;-72
2021/11/15 06:44:43;;;;;;;;;;;;;;;17.13;56.62;102018.66;143745;984;46008;-76
2021/11/15 06:47:08;;;;;;;;;;;;;;;17.12;56.75;102017.81;143739;985;47011;-74
2021/11/15 06:49:35;;;;;;;;;;;;;;;17.13;56.72;102019.47;143740;982;47002;-73
2021/11/15 06:52:01;;;;;;;;;;;;;;;17.13;57.34;102027.63;143739;980;47009;-74
2021/11/15 06:54:27;;;;;;;;;;;;;;;17.09;57.74;102029.13;143740;985;47000;-73
2021/11/15 06:56:53;;;;;;;;;;;;;;;17.10;58.21;102029.94;143738;983;47010;-74
2021/11/15 06:59:20;;;;;;;;;;;;;;;17.09;58.49;102022.84;143737;982;47003;-72
2021/11/15 07:01:46;;;;;;;;;;;;;;;17.07;58.98;102024.91;143740;986;46008;-75
2021/11/15 07:04:12;;;;;;;;;;;;;;;17.05;59.17;102017.00;143740;986;47000;-71
2021/11/15 07:06:40;;;;;;;;;;;;;;;17.07;59.29;102023.06;143742;972;47011;-72
2021/11/15 07:09:07;;;;;;;;;;;;;;;17.07;59.51;102014.91;143737;981;47002;-72
2021/11/15 07:11:34;;;;;;;;;;;;;;;17.06;59.52;102021.38;143738;985;46930;-72
2021/11/15 07:14:00;;;;;;;;;;;;;;;17.08;59.70;102018.44;143741;986;47000;-71
2021/11/15 07:16:27;;;;;;;;;;;;;;;17.09;59.45;102026.41;143741;985;47011;-72
2021/11/15 07:18:53;;;;;;;;;;;;;;;17.12;59.68;102022.41;143737;982;47002;-71
2021/11/15 07:21:19;;;;;;;;;;;;;;;17.13;59.27;102027.63;143740;986;46008;-72
2021/11/15 07:23:45;;;;;;;;;;;;;;;17.17;59.88;102025.34;143740;982;47000;-72
2021/11/15 07:26:11;;;;;;;;;;;;;;;17.21;59.71;102028.47;143738;986;47010;-72
2021/11/15 07:28:37;;;;;;;;;;;;;;;17.22;58.85;102030.13;143737;982;47002;-72
2021/11/15 07:31:03;;;;;;;;;;;;;;;17.23;59.08;102019.06;143739;984;46009;-70
2021/11/15 07:33:29;;;;;;;;;;;;;;;17.22;58.99;102022.00;143740;986;47000;-70
2021/11/15 07:35:55;;;;;;;;;;;;;;;17.23;58.79;102016.34;143740;976;47010;-71
2021/11/15 07:38:22;;;;;;;;;;;;;;;17.23;58.31;102016.34;143738;982;47002;-72
2021/11/15 07:40:47;;;;;;;;;;;;;;;17.24;58.60;102015.28;143738;986;46008;-71
2021/11/15 07:43:14;;;;;;;;;;;;;;;17.23;58.14;102010.09;143740;986;47000;-72
2021/11/15 07:45:40;;;;;;;;;;;;;;;17.22;58.33;102011.12;143739;985;47011;-72
2021/11/15 07:48:06;;;;;;;;;;;;;;;17.21;58.05;102015.72;143737;981;47002;-72
2021/11/15 07:50:32;;;;;;;;;;;;;;;17.20;58.36;102018.66;143739;979;46930;-73
2021/11/15 07:52:58;;;;;;;;;;;;;;;17.20;58.40;102014.06;143741;985;47000;-72
2021/11/15 07:55:24;;;;;;;;;;;;;;;17.19;58.36;102022.41;143739;983;47010;-72
2021/11/15 07:57:49;;;;;;;;;;;;;;;17.21;58.29;102013.00;143739;982;47002;-72
2021/11/15 08:00:17;;;;;;;;;;;;;;;17.22;58.30;102025.53;143735;985;47903;-72
2021/11/15 08:02:44;;;;;;;;;;;;;;;17.27;58.22;102022.19;143741;986;47000;-72
2021/11/15 08:05:11;;;;;;;;;;;;;;;17.26;58.09;102018.62;143735;985;47006;-73
2021/11/15 08:07:37;;;;;;;;;;;;;;;17.26;58.52;102032.22;143739;982;47003;-71
2021/11/15 08:10:04;;;;;;;;;;;;;;;17.28;58.54;102027.41;143741;981;46019;-71
2021/11/15 08:12:35;;;;;;;;;;;;;;;17.33;58.58;102025.94;143742;986;47000;-71
2021/11/15 08:15:04;;;;;;;;;;;;;;;17.34;58.35;102023.00;143738;973;47011;-71
2021/11/15 08:17:30;;;;;;;;;;;;;;;17.36;58.41;102028.25;143739;981;47002;-71
2021/11/15 08:19:56;;;;;;;;;;;;;;;17.39;58.34;102027.78;143741;986;46008;-71
2021/11/15 08:22:22;;;;;;;;;;;;;;;17.41;58.44;102023.84;143741;985;47000;-73
2021/11/15 08:25:10;;;;;;;;;;;;;;;17.42;58.39;102017.34;143739;985;46010;-70
2021/11/15 08:27:36;;;;;;;;;;;;;;;17.35;58.44;102018.41;143737;975;47002;-71
2021/11/15 08:30:04;;;;;;;;;;;;;;;17.35;58.26;102021.97;143740;984;46930;-71
2021/11/15 08:32:30;;;;;;;;;;;;;;;17.39;58.52;102020.50;143739;975;48025;-71
2021/11/15 08:34:58;;;;;;;;;;;;;;;17.41;58.26;102026.56;143737;986;47932;-71
2021/11/15 08:37:25;;;;;;;;;;;;;;;17.43;58.12;102029.91;143739;976;47002;-71
2021/11/15 08:39:51;;;;;;;;;;;;;;;17.48;58.15;102022.97;143739;984;47008;-72
2021/11/15 08:42:17;;;;;;;;;;;;;;;17.48;58.20;102017.53;143741;985;47000;-72
2021/11/15 08:44:52;;;;;;;;;;;;;;;17.48;58.34;102022.97;143739;986;47010;-69
2021/11/15 08:47:18;;;;;;;;;;;;;;;17.49;58.07;102020.06;143737;981;47002;-72
2021/11/15 08:49:44;;;;;;;;;;;;;;;17.51;58.38;102023.41;143739;986;46008;-71
2021/11/15 08:52:10;;;;;;;;;;;;;;;17.56;58.41;102020.03;143741;985;47000;-72
2021/11/15 08:54:36;;;;;;;;;;;;;;;17.58;57.80;102023.37;143739;985;46932;-74
2021/11/15 08:57:04;;;;;;;;;;;;;;;17.58;57.62;102015.22;143739;982;47002;-73
2021/11/15 08:59:30;;;;;;;;;;;;;;;17.58;58.06;102010.63;143740;984;47009;-73
2021/11/15 09:01:55;;;;;;;;;;;;;;;17.60;58.03;102015.00;143741;985;47000;-73
2021/11/15 09:04:22;;;;;;;;;;;;;;;17.61;58.16;102020.22;143738;986;47002;-71
2021/11/15 09:06:48;;;;;;;;;;;;;;;17.61;57.89;102013.94;143737;982;47003;-70
2021/11/15 09:09:15;;;;;;;;;;;;;;;17.61;58.15;102013.94;143739;984;46010;-75
2021/11/15 09:11:48;;;;;;;;;;;;;;;17.63;58.36;102015.44;143742;986;47010;-77
2021/11/15 09:14:14;;;;;;;;;;;;;;;17.65;58.29;102013.31;143740;982;46932;-74
2021/11/15 09:16:41;;;;;;;;;;;;;;;17.66;58.59;102011.44;143740;973;47006;-77
2021/11/15 09:19:07;;;;;;;;;;;;;;;17.66;58.57;102006.00;143737;984;47010;-75
2021/11/15 09:21:33;;;;;;;;;;;;;;;17.68;58.40;102007.44;143742;982;47002;-76
2021/11/15 09:23:59;;;;;;;;;;;;;;;17.73;58.18;102002.22;143737;981;46934;-73
2021/11/15 09:26:27;;;;;;;;;;;;;;;17.74;58.08;102005.75;143737;978;47004;-64
2021/11/15 09:28:54;;;;;;;;;;;;;;;17.73;57.64;102004.09;143739;984;46011;-71
2021/11/15 09:31:20;;;;;;;;;;;;;;;17.75;57.56;101991.12;143742;981;47002;-71
2021/11/15 09:33:46;;;;;;;;;;;;;;;17.73;58.06;101996.78;143739;982;47012;-65
2021/11/15 09:36:12;;;;;;;;;;;;;;;17.75;58.25;102003.88;143738;978;47004;-72
2021/11/15 09:38:39;;;;;;;;;;;;;;;17.73;58.00;101993.22;143733;983;48006;-71
2021/11/15 09:41:06;;;;;;;;;;;;;;;17.75;58.04;101996.53;143740;982;47002;-71
2021/11/15 09:43:34;;;;;;;;;;;;;;;17.78;57.75;101998.00;143740;970;46030;-72
2021/11/15 09:46:07;;;;;;;;;;;;;;;17.79;58.31;101999.69;143739;977;47004;-72
2021/11/15 09:48:37;;;;;;;;;;;;;;;17.77;58.13;102001.78;143740;984;47010;-73
2021/11/15 09:51:04;;;;;;;;;;;;;;;17.77;58.36;102001.78;143742;982;47002;-74
2021/11/15 09:53:31;;;;;;;;;;;;;;;17.78;58.79;102001.56;143738;973;47012;-71
2021/11/15 09:55:57;;;;;;;;;;;;;;;17.77;58.28;101991.72;143737;978;47004;-70
2021/11/15 09:58:23;;;;;;;;;;;;;;;17.79;58.29;101991.53;143738;984;47010;-71
2021/11/15 10:00:49;;;;;;;;;;;;;;;17.78;58.30;101987.97;143741;981;47002;-70
2021/11/15 10:03:16;;;;;;;;;;;;;;;17.77;58.55;101985.47;143739;982;47012;-71
2021/11/15 10:05:43;;;;;;;;;;;;;;;17.72;58.60;101980.69;143739;978;47004;-67
2021/11/15 10:08:10;;;;;;;;;;;;;;;17.73;58.70;101985.09;143738;983;47011;-67
2021/11/15 10:10:44;;;;;;;;;;;;;;;17.72;59.10;101977.97;143742;982;47002;-67
2021/11/15 10:13:21;;;;;;;;;;;;;;;17.67;58.75;101988.66;143740;982;47012;-69
2021/11/15 10:15:52;;;;;;;;;;;;;;;17.67;59.00;101988.66;143739;977;47004;-66
2021/11/15 10:18:28;;;;;;;;;;;;;;;17.69;59.00;101981.94;143740;984;47010;-65
2021/11/15 10:20:54;;;;;;;;;;;;;;;17.70;59.16;101985.50;143742;982;47002;-64
2021/11/15 10:23:31;;;;;;;;;;;;;;;17.69;59.04;101975.69;143738;981;47013;-75
2021/11/15 10:26:02;;;;;;;;;;;;;;;17.69;59.35;101978.41;143738;978;47004;-76
2021/11/15 10:28:30;;;;;;;;;;;;;;;17.70;59.29;101980.06;143740;984;46936;-67
2021/11/15 10:30:56;;;;;;;;;;;;;;;17.71;59.66;101979.84;143740;981;47013;-66
2021/11/15 10:33:35;;;;;;;;;;;;;;;17.69;59.51;101976.50;143741;982;47012;-67
2021/11/15 10:36:02;;;;;;;;;;;;;;;17.69;59.53;101973.78;143738;978;47004;-66
2021/11/15 10:38:45;;;;;;;;;;;;;;;17.70;59.87;101966.50;143740;976;47010;-64
2021/11/15 10:41:12;;;;;;;;;;;;;;;17.68;59.76;101965.87;143743;982;46010;-66
2021/11/15 10:43:38;;;;;;;;;;;;;;;17.71;59.43;101965.44;143739;981;47016;-66
2021/11/15 10:46:04;;;;;;;;;;;;;;;17.68;60.17;101966.69;143739;977;47004;-65
2021/11/15 10:48:44;;;;;;;;;;;;;;;17.70;60.02;101961.87;143740;984;46010;-66
2021/11/15 10:51:12;;;;;;;;;;;;;;;17.70;59.70;101955.63;143742;982;47002;-66
2021/11/15 10:53:56;;;;;;;;;;;;;;;17.70;59.87;101956.44;143739;975;47012;-65
2021/11/15 10:56:39;;;;;;;;;;;;;;;17.72;60.22;101953.53;143736;978;47004;-65
2021/11/15 10:59:14;;;;;;;;;;;;;;;17.72;59.73;101956.25;143738;984;46011;-65
2021/11/15 11:01:43;;;;;;;;;;;;;;;17.73;59.87;101949.75;143742;981;47002;-65
2021/11/15 11:04:10;;;;;;;;;;;;;;;17.75;60.20;101955.78;143738;982;47012;-65
2021/11/15 11:06:57;;;;;;;;;;;;;;;17.75;60.28;101954.97;143741;978;47012;-66
2021/11/15 11:09:33;;;;;;;;;;;;;;;17.73;60.51;101949.75;143739;984;46010;-66
2021/11/15 11:12:14;;;;;;;;;;;;;;;17.74;60.40;101945.97;143741;982;47002;-64
2021/11/15 11:14:41;;;;;;;;;;;;;;;17.73;60.97;101952.47;143739;981;47010;-69
2021/11/15 11:17:07;;;;;;;;;;;;;;;17.72;61.06;101946.19;143737;978;47004;-69
2021/11/15 11:19:58;;;;;;;;;;;;;;;17.73;60.52;101950.56;143738;984;46010;-68
2021/11/15 11:22:39;;;;;;;;;;;;;;;17.75;60.56;101942.19;143738;981;47002;-69
2021/11/15 11:25:10;;;;;;;;;;;;;;;17.76;60.93;101943.88;143738;982;47012;-66
2021/11/15 11:27:36;;;;;;;;;;;;;;;17.73;60.83;101936.19;143738;978;47004;-65
2021/11/15 11:30:03;;;;;;;;;;;;;;;17.76;60.55;101940.34;143740;983;46010;-66
2021/11/15 11:32:29;;;;;;;;;;;;;;;17.76;60.46;101943.88;143739;982;47002;-67
2021/11/15 11:34:57;;;;;;;;;;;;;;;17.73;60.75;101939.72;143740;982;47004;-65
2021/11/15 11:37:26;;;;;;;;;;;;;;;17.73;61.14;101938.87;143737;977;47004;-63
2021/11/15 11:39:53;;;;;;;;;;;;;;;17.71;61.07;101936.38;143739;982;48010;-69
2021/11/15 11:42:19;;;;;;;;;;;;;;;17.70;60.96;101939.31;143739;982;47002;-68
2021/11/15 11:44:46;;;;;;;;;;;;;;;17.68;61.21;101934.09;143737;981;47012;-67
2021/11/15 11:47:13;;;;;;;;;;;;;;;17.68;60.88;101944.12;143737;978;48004;-65
2021/11/15 11:49:40;;;;;;;;;;;;;;;17.66;60.64;101927.22;143741;984;46010;-71
2021/11/15 11:52:12;;;;;;;;;;;;;;;17.67;60.70;101937.84;143743;982;47002;-72
2021/11/15 11:54:48;;;;;;;;;;;;;;;17.58;60.89;101931.00;143739;970;47012;-66
2021/11/15 11:57:24;;;;;;;;;;;;;;;17.55;60.69;101929.56;143738;978;47004;-69
2021/11/15 12:00:01;;;;;;;;;;;;;;;17.48;61.10;101925.19;143741;982;46011;-69
2021/11/15 12:02:31;;;;;;;;;;;;;;;17.39;61.51;101927.31;143742;971;47002;-68
2021/11/15 12:05:04;;;;;;;;;;;;;;;17.33;61.85;101923.56;143738;982;47012;-69
2021/11/15 12:07:36;;;;;;;;;;;;;;;17.26;62.38;101925.50;143737;977;47004;-70
2021/11/15 12:10:14;;;;;;;;;;;;;;;17.23;62.30;101928.63;143738;984;47010;-68
2021/11/15 12:12:55;;;;;;;;;;;;;;;17.19;62.55;101919.25;143740;982;47003;-72
2021/11/15 12:15:32;;;;;;;;;;;;;;;17.20;62.74;101918.19;143739;981;47013;-71
2021/11/15 12:18:27;;;;;;;;;;;;;;;17.21;62.35;101909.81;143739;978;47004;-70
2021/11/15 12:21:21;;;;;;;;;;;;;;;17.22;62.42;101910.66;143739;984;47011;-68
2021/11/15 12:24:17;;;;;;;;;;;;;;;17.24;62.22;101916.72;143741;982;47002;-67
2021/11/15 12:26:44;;;;;;;;;;;;;;;17.26;62.41;101912.75;143739;970;47012;-69
2021/11/15 12:29:37;;;;;;;;;;;;;;;17.26;62.35;101912.75;143740;977;47005;-69
2021/11/15 12:32:04;;;;;;;;;;;;;;;17.24;62.04;101909.41;143740;984;46010;-69
2021/11/15 12:34:32;;;;;;;;;;;;;;;17.22;62.34;101906.06;143741;982;47002;-68
2021/11/15 12:36:58;;;;;;;;;;;;;;;17.24;62.15;101901.25;143736;981;47013;-68
2021/11/15 12:39:38;;;;;;;;;;;;;;;17.26;62.32;101915.44;143739;978;47004;-68